Portland — WDG2201 — position and weather

sailwx.info

Track history (hours):
 
Tides and Currents Weather Stations Pressure Air Temp Water Temp Dewpoint Dewpoint Depression Visibility Wind Speed Wind Dir Waves Ship Positions

Portland

Owner: Shaver Transportation Company, Portland, OR. More information available from US FCC via Universal Licensing System and Coast Guard Vessel Documentation Center.

Last reported at 2015-May-27 13:23 UTC. Time now 2015-May-27 14:01 UTC.
Position N 45°34' W 122°44'.

Length 27 m; draft 4 m.

Type: Towing. MMSI: 367315814.

Date/timePositionNaut miles runAvg speedWind from/ knotsBaromVisibWave heightAir tempDewpointWater temp
2015-May-27 13:23N 45°34' W 122°44'0 0.0
2015-May-27 12:29N 45°34' W 122°44'0 0.0
2015-May-27 11:32N 45°34' W 122°44'0 0.0
2015-May-27 10:26N 45°34' W 122°44'0 0.0
2015-May-27 09:29N 45°34' W 122°44'0 0.0
2015-May-27 08:32N 45°34' W 122°44'0 0.0
2015-May-27 07:29N 45°34' W 122°44'0 0.0
2015-May-27 06:23N 45°34' W 122°44'0 0.0
2015-May-27 05:32N 45°34' W 122°44'0 0.0
2015-May-27 04:26N 45°34' W 122°44'0 0.0
2015-May-27 03:29N 45°34' W 122°44'0 0.0
2015-May-27 02:29N 45°34' W 122°44'0 0.0
2015-May-27 01:23N 45°34' W 122°44'0 0.0
2015-May-27 00:29N 45°34' W 122°44'5 5.3
2015-May-26 23:34N 45°38' W 122°47'8 8.0
2015-May-26 22:33N 45°46' W 122°46'8 7.7
2015-May-26 21:33N 45°53' W 122°48'8 7.9
2015-May-26 20:33N 46°01' W 122°51'6 5.7
2015-May-26 19:33N 46°05' W 122°56'0 0.0
2015-May-26 18:33N 46°05' W 122°56'0 0.0
2015-May-26 17:27N 46°05' W 122°56'0 0.0
2015-May-26 16:33N 46°05' W 122°56'1 0.9
2015-May-26 15:33N 46°06' W 122°57'1 0.8
2015-May-26 14:33N 46°05' W 122°56'0 0.0
2015-May-26 13:33N 46°05' W 122°56'0 0.0
2015-May-26 12:33N 46°05' W 122°56'0 0.0
2015-May-26 11:33N 46°05' W 122°56'0 0.0
2015-May-26 10:33N 46°05' W 122°56'0 0.0
2015-May-26 09:33N 46°05' W 122°56'0 0.0
2015-May-26 08:33N 46°05' W 122°56'0 0.0
2015-May-26 07:33N 46°05' W 122°56'0 0.0
2015-May-26 06:33N 46°05' W 122°56'0 0.0
2015-May-26 05:33N 46°05' W 122°56'0 0.0
2015-May-26 04:33N 46°05' W 122°56'0 0.0
2015-May-26 03:33N 46°05' W 122°56'0 0.0
2015-May-26 02:33N 46°05' W 122°56'0 0.0
2015-May-26 01:33N 46°05' W 122°56'0 0.0
2015-May-26 00:33N 46°05' W 122°56'0 0.0
2015-May-25 23:33N 46°05' W 122°56'0 0.0
2015-May-25 22:33N 46°05' W 122°56'0 0.0
2015-May-25 21:33N 46°05' W 122°56'0 0.0
2015-May-25 20:33N 46°05' W 122°56'0 0.0
2015-May-25 19:33N 46°05' W 122°56'0 0.0
2015-May-25 18:33N 46°05' W 122°56'0 0.0
2015-May-25 17:33N 46°05' W 122°56'0 0.0
2015-May-25 16:33N 46°05' W 122°56'0 0.0
2015-May-25 15:33N 46°05' W 122°56'0 0.0
2015-May-25 14:33N 46°05' W 122°56'0 0.0
2015-May-25 13:33N 46°05' W 122°56'0 0.0
2015-May-25 12:33N 46°05' W 122°56'0 0.0
2015-May-25 11:33N 46°05' W 122°56'0 0.0
2015-May-25 10:33N 46°05' W 122°56'0 0.0
2015-May-25 09:33N 46°05' W 122°56'0 0.0
2015-May-25 08:33N 46°05' W 122°56'0 0.0
2015-May-25 07:33N 46°05' W 122°56'0 0.0
2015-May-25 06:33N 46°05' W 122°56'0 0.0
2015-May-25 05:33N 46°05' W 122°56'0 0.0
2015-May-25 04:33N 46°05' W 122°56'0 0.0
2015-May-25 03:33N 46°05' W 122°56'0 0.0
2015-May-25 02:33N 46°05' W 122°56'0 0.0
2015-May-25 01:33N 46°05' W 122°56'0 0.0
2015-May-25 00:33N 46°05' W 122°56'0 0.0
2015-May-24 23:33N 46°05' W 122°56'0 0.0
2015-May-24 22:33N 46°05' W 122°56'0 0.0
2015-May-24 21:33N 46°05' W 122°56'0 0.0
2015-May-24 20:33N 46°05' W 122°56'0 0.0
2015-May-24 19:33N 46°05' W 122°56'0 0.0
2015-May-24 18:33N 46°05' W 122°56'0 0.0
2015-May-24 17:33N 46°05' W 122°56'0 0.0
2015-May-24 16:33N 46°05' W 122°56'0 0.0
2015-May-24 15:33N 46°05' W 122°56'0 0.0
2015-May-24 14:33N 46°05' W 122°56'0 0.0
2015-May-24 13:33N 46°05' W 122°56'0 0.0
2015-May-24 12:33N 46°05' W 122°56'0 0.0
2015-May-24 11:33N 46°05' W 122°56'0 0.0
2015-May-24 10:33N 46°05' W 122°56'0 0.0
2015-May-24 09:33N 46°05' W 122°56'0 0.0
2015-May-24 08:33N 46°05' W 122°56'0 0.0
2015-May-24 07:33N 46°05' W 122°56'0 0.0
2015-May-24 06:33N 46°05' W 122°56'0 0.0
2015-May-24 05:33N 46°05' W 122°56'0 0.0
2015-May-24 04:33N 46°05' W 122°56'0 0.0
2015-May-24 03:33N 46°05' W 122°56'0 0.0
2015-May-24 02:33N 46°05' W 122°56'0 0.0
2015-May-24 01:33N 46°05' W 122°56'0 0.0
2015-May-24 00:33N 46°05' W 122°56'0 0.0
2015-May-23 23:33N 46°05' W 122°56'0 0.0
2015-May-23 22:33N 46°05' W 122°56'0 0.0
2015-May-23 21:33N 46°05' W 122°56'0 0.0
2015-May-23 20:33N 46°05' W 122°56'0 0.0
2015-May-23 19:33N 46°05' W 122°56'0 0.0
2015-May-23 18:33N 46°05' W 122°56'0 0.0
2015-May-23 17:33N 46°05' W 122°56'0 0.0
2015-May-23 16:33N 46°05' W 122°56'0 0.0
2015-May-23 15:33N 46°05' W 122°56'0 0.0
2015-May-23 14:33N 46°05' W 122°56'0 0.0
2015-May-23 13:33N 46°05' W 122°56'0 0.0
2015-May-23 12:33N 46°05' W 122°56'0 0.0
2015-May-23 11:33N 46°05' W 122°56'0 0.0
2015-May-23 10:33N 46°05' W 122°56'0 0.0
2015-May-23 09:33N 46°05' W 122°56'0 0.0
2015-May-23 08:33N 46°05' W 122°56'0 0.0
2015-May-23 07:33N 46°05' W 122°56'0 0.0
2015-May-23 06:33N 46°05' W 122°56'0 0.0
2015-May-23 05:33N 46°05' W 122°56'0 0.0
2015-May-23 04:33N 46°05' W 122°56'0 0.0
2015-May-23 03:33N 46°05' W 122°56'0 0.0
2015-May-23 02:33N 46°05' W 122°56'0 0.0
2015-May-23 01:33N 46°05' W 122°56'0 0.0
2015-May-23 00:33N 46°05' W 122°56'0 0.0
2015-May-22 23:33N 46°05' W 122°56'0 0.0
2015-May-22 22:33N 46°05' W 122°56'0 0.0
2015-May-22 21:33N 46°05' W 122°56'0 0.0
2015-May-22 20:33N 46°05' W 122°56'0 0.0
2015-May-22 19:33N 46°05' W 122°56'0 0.0
2015-May-22 18:33N 46°05' W 122°56'0 0.0
2015-May-22 17:33N 46°05' W 122°56'0 0.0
2015-May-22 16:33N 46°05' W 122°56'0 0.0
2015-May-22 15:33N 46°05' W 122°56'0 0.0
2015-May-22 14:33N 46°05' W 122°56'4 4.4
2015-May-22 13:33N 46°08' W 123°01'1010.3
2015-May-22 12:34N 46°09' W 123°16'9 8.9
2015-May-22 11:33N 46°14' W 123°26'1111.0
2015-May-22 10:33N 46°15' W 123°42'6 5.9
2015-May-22 09:28N 46°11' W 123°50'7 7.5
2015-May-22 08:34N 46°14' W 123°59'2 1.8
2015-May-22 07:34N 46°15' W 124°01'9 9.1
2015-May-22 06:33N 46°12' W 123°48'1 1.2
2015-May-22 05:33N 46°13' W 123°47'3 2.5
2015-May-22 04:33N 46°11' W 123°50'7 6.5
2015-May-22 03:33N 46°15' W 123°42'1111.0
2015-May-22 02:33N 46°14' W 123°26'9 8.7
2015-May-22 01:33N 46°09' W 123°15'10 9.7
2015-May-22 00:33N 46°08' W 123°01'1110.8
2015-May-21 23:33N 46°00' W 122°51'1312.9
2015-May-21 22:34N 45°48' W 122°47'9 8.9
2015-May-21 21:33N 45°39' W 122°45'0 0.2
2015-May-21 20:33N 45°39' W 122°45'0 0.0
2015-May-21 19:33N 45°39' W 122°45'0 0.0
2015-May-21 18:33N 45°39' W 122°45'0 0.0
2015-May-21 17:33N 45°39' W 122°45'0 0.0
2015-May-21 16:33N 45°39' W 122°45'0 0.0
2015-May-21 15:33N 45°39' W 122°45'0 0.0
2015-May-21 14:33N 45°39' W 122°45'0 0.0
2015-May-21 13:33N 45°39' W 122°45'0 0.0
2015-May-21 12:33N 45°39' W 122°45'0 0.0
2015-May-21 11:33N 45°39' W 122°45'0 0.0
2015-May-21 10:33N 45°39' W 122°45'0 0.0
2015-May-21 09:33N 45°39' W 122°45'0 0.0
2015-May-21 08:33N 45°39' W 122°45'0 0.0
2015-May-21 07:34N 45°39' W 122°45'2 2.1
2015-May-21 06:34N 45°38' W 122°42'2 2.1
2015-May-21 05:33N 45°39' W 122°45'0 0.0
2015-May-21 04:33N 45°39' W 122°45'3 2.7
2015-May-21 03:33N 45°36' W 122°47'1 1.2
2015-May-21 02:33N 45°37' W 122°47'2 2.4
2015-May-21 01:33N 45°39' W 122°45'0 0.0
2015-May-21 00:33N 45°39' W 122°45'0 0.0
2015-May-20 23:34N 45°39' W 122°45'0 0.0
2015-May-20 22:33N 45°39' W 122°45'0 0.5
2015-May-20 21:33N 45°39' W 122°45'0 0.2
2015-May-20 20:33N 45°39' W 122°45'0 0.4
2015-May-20 19:33N 45°39' W 122°45'0 0.0
2015-May-20 18:33N 45°39' W 122°45'0 0.0
2015-May-20 17:33N 45°39' W 122°45'0 0.0
2015-May-20 16:33N 45°39' W 122°45'0 0.0
2015-May-20 15:34N 45°39' W 122°45'0 0.4
2015-May-20 14:33N 45°39' W 122°45'1 0.7
2015-May-20 13:33N 45°39' W 122°44'2 2.0
2015-May-20 12:33N 45°38' W 122°42'1 1.4
2015-May-20 11:33N 45°38' W 122°44'0 0.0
2015-May-20 10:33N 45°38' W 122°44'0 0.0
2015-May-20 09:33N 45°38' W 122°44'0 0.0
2015-May-20 08:33N 45°38' W 122°44'0 0.5
2015-May-20 07:33N 45°38' W 122°44'1 0.8
2015-May-20 06:33N 45°39' W 122°45'0 0.0
2015-May-20 05:25N 45°39' W 122°45'0 0.0
2015-May-20 04:31N 45°39' W 122°45'0 0.0
2015-May-20 03:22N 45°39' W 122°45'0 0.0
2015-May-20 02:31N 45°39' W 122°45'0 0.0
2015-May-20 01:31N 45°39' W 122°45'0 0.0
2015-May-20 00:28N 45°39' W 122°45'2 2.2
2015-May-19 23:33N 45°38' W 122°42'2 1.8
2015-May-19 22:28N 45°39' W 122°45'0 0.0
2015-May-19 21:28N 45°39' W 122°45'0 0.0
2015-May-19 20:31N 45°39' W 122°45'0 0.0
2015-May-19 19:28N 45°39' W 122°45'0 0.0
2015-May-19 18:31N 45°39' W 122°45'0 0.0
2015-May-19 17:22N 45°39' W 122°45'0 0.0
2015-May-19 16:25N 45°39' W 122°45'0 0.0
2015-May-19 15:31N 45°39' W 122°45'0 0.0
2015-May-19 14:28N 45°39' W 122°45'0 0.0
2015-May-19 13:28N 45°39' W 122°45'0 0.0
2015-May-19 12:31N 45°39' W 122°45'0 0.0
2015-May-19 11:31N 45°39' W 122°45'0 0.0
2015-May-19 10:28N 45°39' W 122°45'0 0.0
2015-May-19 09:28N 45°39' W 122°45'0 0.0
2015-May-19 08:31N 45°39' W 122°45'0 0.0
2015-May-19 07:28N 45°39' W 122°45'0 0.0
2015-May-19 06:28N 45°39' W 122°45'0 0.0
2015-May-19 05:28N 45°39' W 122°45'0 0.0
2015-May-19 04:25N 45°39' W 122°45'0 0.0
2015-May-19 03:28N 45°39' W 122°45'0 0.0
2015-May-19 02:31N 45°39' W 122°45'0 0.0
2015-May-19 01:31N 45°39' W 122°45'0 0.0
2015-May-19 00:28N 45°39' W 122°45'0 0.0
2015-May-18 23:28N 45°39' W 122°45'0 0.0
2015-May-18 22:28N 45°39' W 122°45'0 0.0
2015-May-18 21:22N 45°39' W 122°45'0 0.0
2015-May-18 20:33N 45°39' W 122°45'0 0.0
2015-May-18 19:33N 45°39' W 122°45'0 0.0
2015-May-18 18:33N 45°39' W 122°45'0 0.0
2015-May-18 17:33N 45°39' W 122°45'0 0.0
2015-May-18 16:33N 45°39' W 122°45'0 0.0
2015-May-18 15:34N 45°39' W 122°45'0 0.0
2015-May-18 14:33N 45°39' W 122°45'3 2.5
2015-May-18 13:33N 45°38' W 122°42'1 0.6
2015-May-18 12:33N 45°38' W 122°42'2 2.0
2015-May-18 11:33N 45°39' W 122°45'0 0.0
2015-May-18 10:33N 45°39' W 122°45'0 0.0
2015-May-18 09:33N 45°39' W 122°45'0 0.0
2015-May-18 08:33N 45°39' W 122°45'0 0.0
2015-May-18 07:33N 45°39' W 122°45'0 0.0
2015-May-18 06:33N 45°39' W 122°45'0 0.0
2015-May-18 05:33N 45°39' W 122°45'0 0.0
2015-May-18 04:33N 45°39' W 122°45'0 0.0
2015-May-18 03:33N 45°39' W 122°45'0 0.0
2015-May-18 02:33N 45°39' W 122°45'0 0.0
2015-May-18 01:33N 45°39' W 122°45'0 0.0
2015-May-18 00:33N 45°39' W 122°45'0 0.0
2015-May-17 23:33N 45°39' W 122°45'0 0.0
2015-May-17 22:33N 45°39' W 122°45'0 0.0
2015-May-17 21:33N 45°39' W 122°45'0 0.0
2015-May-17 20:33N 45°39' W 122°45'0 0.0
2015-May-17 19:33N 45°39' W 122°45'0 0.0
2015-May-17 18:33N 45°39' W 122°45'0 0.0
2015-May-17 17:33N 45°39' W 122°45'0 0.0
2015-May-17 16:33N 45°39' W 122°45'0 0.0
2015-May-17 15:33N 45°39' W 122°45'0 0.0
2015-May-17 14:33N 45°39' W 122°45'0 0.0
2015-May-17 13:33N 45°39' W 122°45'  
Track history (hours):
 
Tides and Currents Weather Stations Pressure Air Temp Water Temp Dewpoint Dewpoint Depression Visibility Wind Speed Wind Dir Waves Ship Positions

Portland

Owner: Shaver Transportation Company, Portland, OR. More information available from US FCC via Universal Licensing System and Coast Guard Vessel Documentation Center.

Last reported at 2015-May-27 13:23 UTC. Time now 2015-May-27 14:01 UTC.
Position N 45°34' W 122°44'.

Length 27 m; draft 4 m.

Type: Towing. MMSI: 367315814.

Date/timePositionNaut miles runAvg speedWind from/ knotsBaromVisibWave heightAir tempDewpointWater temp
2015-May-27 13:23N 45°34' W 122°44'0 0.0
2015-May-27 12:29N 45°34' W 122°44'0 0.0
2015-May-27 11:32N 45°34' W 122°44'0 0.0
2015-May-27 10:26N 45°34' W 122°44'0 0.0
2015-May-27 09:29N 45°34' W 122°44'0 0.0
2015-May-27 08:32N 45°34' W 122°44'0 0.0
2015-May-27 07:29N 45°34' W 122°44'0 0.0
2015-May-27 06:23N 45°34' W 122°44'0 0.0
2015-May-27 05:32N 45°34' W 122°44'0 0.0
2015-May-27 04:26N 45°34' W 122°44'0 0.0
2015-May-27 03:29N 45°34' W 122°44'0 0.0
2015-May-27 02:29N 45°34' W 122°44'0 0.0
2015-May-27 01:23N 45°34' W 122°44'0 0.0
2015-May-27 00:29N 45°34' W 122°44'5 5.3
2015-May-26 23:34N 45°38' W 122°47'8 8.0
2015-May-26 22:33N 45°46' W 122°46'8 7.7
2015-May-26 21:33N 45°53' W 122°48'8 7.9
2015-May-26 20:33N 46°01' W 122°51'6 5.7
2015-May-26 19:33N 46°05' W 122°56'0 0.0
2015-May-26 18:33N 46°05' W 122°56'0 0.0
2015-May-26 17:27N 46°05' W 122°56'0 0.0
2015-May-26 16:33N 46°05' W 122°56'1 0.9
2015-May-26 15:33N 46°06' W 122°57'1 0.8
2015-May-26 14:33N 46°05' W 122°56'0 0.0
2015-May-26 13:33N 46°05' W 122°56'0 0.0
2015-May-26 12:33N 46°05' W 122°56'0 0.0
2015-May-26 11:33N 46°05' W 122°56'0 0.0
2015-May-26 10:33N 46°05' W 122°56'0 0.0
2015-May-26 09:33N 46°05' W 122°56'0 0.0
2015-May-26 08:33N 46°05' W 122°56'0 0.0
2015-May-26 07:33N 46°05' W 122°56'0 0.0
2015-May-26 06:33N 46°05' W 122°56'0 0.0
2015-May-26 05:33N 46°05' W 122°56'0 0.0
2015-May-26 04:33N 46°05' W 122°56'0 0.0
2015-May-26 03:33N 46°05' W 122°56'0 0.0
2015-May-26 02:33N 46°05' W 122°56'0 0.0
2015-May-26 01:33N 46°05' W 122°56'0 0.0
2015-May-26 00:33N 46°05' W 122°56'0 0.0
2015-May-25 23:33N 46°05' W 122°56'0 0.0
2015-May-25 22:33N 46°05' W 122°56'0 0.0
2015-May-25 21:33N 46°05' W 122°56'0 0.0
2015-May-25 20:33N 46°05' W 122°56'0 0.0
2015-May-25 19:33N 46°05' W 122°56'0 0.0
2015-May-25 18:33N 46°05' W 122°56'0 0.0
2015-May-25 17:33N 46°05' W 122°56'0 0.0
2015-May-25 16:33N 46°05' W 122°56'0 0.0
2015-May-25 15:33N 46°05' W 122°56'0 0.0
2015-May-25 14:33N 46°05' W 122°56'0 0.0
2015-May-25 13:33N 46°05' W 122°56'0 0.0
2015-May-25 12:33N 46°05' W 122°56'0 0.0
2015-May-25 11:33N 46°05' W 122°56'0 0.0
2015-May-25 10:33N 46°05' W 122°56'0 0.0
2015-May-25 09:33N 46°05' W 122°56'0 0.0
2015-May-25 08:33N 46°05' W 122°56'0 0.0
2015-May-25 07:33N 46°05' W 122°56'0 0.0
2015-May-25 06:33N 46°05' W 122°56'0 0.0
2015-May-25 05:33N 46°05' W 122°56'0 0.0
2015-May-25 04:33N 46°05' W 122°56'0 0.0
2015-May-25 03:33N 46°05' W 122°56'0 0.0
2015-May-25 02:33N 46°05' W 122°56'0 0.0
2015-May-25 01:33N 46°05' W 122°56'0 0.0
2015-May-25 00:33N 46°05' W 122°56'0 0.0
2015-May-24 23:33N 46°05' W 122°56'0 0.0
2015-May-24 22:33N 46°05' W 122°56'0 0.0
2015-May-24 21:33N 46°05' W 122°56'0 0.0
2015-May-24 20:33N 46°05' W 122°56'0 0.0
2015-May-24 19:33N 46°05' W 122°56'0 0.0
2015-May-24 18:33N 46°05' W 122°56'0 0.0
2015-May-24 17:33N 46°05' W 122°56'0 0.0
2015-May-24 16:33N 46°05' W 122°56'0 0.0
2015-May-24 15:33N 46°05' W 122°56'0 0.0
2015-May-24 14:33N 46°05' W 122°56'0 0.0
2015-May-24 13:33N 46°05' W 122°56'0 0.0
2015-May-24 12:33N 46°05' W 122°56'0 0.0
2015-May-24 11:33N 46°05' W 122°56'0 0.0
2015-May-24 10:33N 46°05' W 122°56'0 0.0
2015-May-24 09:33N 46°05' W 122°56'0 0.0
2015-May-24 08:33N 46°05' W 122°56'0 0.0
2015-May-24 07:33N 46°05' W 122°56'0 0.0
2015-May-24 06:33N 46°05' W 122°56'0 0.0
2015-May-24 05:33N 46°05' W 122°56'0 0.0
2015-May-24 04:33N 46°05' W 122°56'0 0.0
2015-May-24 03:33N 46°05' W 122°56'0 0.0
2015-May-24 02:33N 46°05' W 122°56'0 0.0
2015-May-24 01:33N 46°05' W 122°56'0 0.0
2015-May-24 00:33N 46°05' W 122°56'0 0.0
2015-May-23 23:33N 46°05' W 122°56'0 0.0
2015-May-23 22:33N 46°05' W 122°56'0 0.0
2015-May-23 21:33N 46°05' W 122°56'0 0.0
2015-May-23 20:33N 46°05' W 122°56'0 0.0
2015-May-23 19:33N 46°05' W 122°56'0 0.0
2015-May-23 18:33N 46°05' W 122°56'0 0.0
2015-May-23 17:33N 46°05' W 122°56'0 0.0
2015-May-23 16:33N 46°05' W 122°56'0 0.0
2015-May-23 15:33N 46°05' W 122°56'0 0.0
2015-May-23 14:33N 46°05' W 122°56'0 0.0
2015-May-23 13:33N 46°05' W 122°56'0 0.0
2015-May-23 12:33N 46°05' W 122°56'0 0.0
2015-May-23 11:33N 46°05' W 122°56'0 0.0
2015-May-23 10:33N 46°05' W 122°56'0 0.0
2015-May-23 09:33N 46°05' W 122°56'0 0.0
2015-May-23 08:33N 46°05' W 122°56'0 0.0
2015-May-23 07:33N 46°05' W 122°56'0 0.0
2015-May-23 06:33N 46°05' W 122°56'0 0.0
2015-May-23 05:33N 46°05' W 122°56'0 0.0
2015-May-23 04:33N 46°05' W 122°56'0 0.0
2015-May-23 03:33N 46°05' W 122°56'0 0.0
2015-May-23 02:33N 46°05' W 122°56'0 0.0
2015-May-23 01:33N 46°05' W 122°56'0 0.0
2015-May-23 00:33N 46°05' W 122°56'0 0.0
2015-May-22 23:33N 46°05' W 122°56'0 0.0
2015-May-22 22:33N 46°05' W 122°56'0 0.0
2015-May-22 21:33N 46°05' W 122°56'0 0.0
2015-May-22 20:33N 46°05' W 122°56'0 0.0
2015-May-22 19:33N 46°05' W 122°56'0 0.0
2015-May-22 18:33N 46°05' W 122°56'0 0.0
2015-May-22 17:33N 46°05' W 122°56'0 0.0
2015-May-22 16:33N 46°05' W 122°56'0 0.0
2015-May-22 15:33N 46°05' W 122°56'0 0.0
2015-May-22 14:33N 46°05' W 122°56'4 4.4
2015-May-22 13:33N 46°08' W 123°01'1010.3
2015-May-22 12:34N 46°09' W 123°16'9 8.9
2015-May-22 11:33N 46°14' W 123°26'1111.0
2015-May-22 10:33N 46°15' W 123°42'6 5.9
2015-May-22 09:28N 46°11' W 123°50'7 7.5
2015-May-22 08:34N 46°14' W 123°59'2 1.8
2015-May-22 07:34N 46°15' W 124°01'9 9.1
2015-May-22 06:33N 46°12' W 123°48'1 1.2
2015-May-22 05:33N 46°13' W 123°47'3 2.5
2015-May-22 04:33N 46°11' W 123°50'7 6.5
2015-May-22 03:33N 46°15' W 123°42'1111.0
2015-May-22 02:33N 46°14' W 123°26'9 8.7
2015-May-22 01:33N 46°09' W 123°15'10 9.7
2015-May-22 00:33N 46°08' W 123°01'1110.8
2015-May-21 23:33N 46°00' W 122°51'1312.9
2015-May-21 22:34N 45°48' W 122°47'9 8.9
2015-May-21 21:33N 45°39' W 122°45'0 0.2
2015-May-21 20:33N 45°39' W 122°45'0 0.0
2015-May-21 19:33N 45°39' W 122°45'0 0.0
2015-May-21 18:33N 45°39' W 122°45'0 0.0
2015-May-21 17:33N 45°39' W 122°45'0 0.0
2015-May-21 16:33N 45°39' W 122°45'0 0.0
2015-May-21 15:33N 45°39' W 122°45'0 0.0
2015-May-21 14:33N 45°39' W 122°45'0 0.0
2015-May-21 13:33N 45°39' W 122°45'0 0.0
2015-May-21 12:33N 45°39' W 122°45'0 0.0
2015-May-21 11:33N 45°39' W 122°45'0 0.0
2015-May-21 10:33N 45°39' W 122°45'0 0.0
2015-May-21 09:33N 45°39' W 122°45'0 0.0
2015-May-21 08:33N 45°39' W 122°45'0 0.0
2015-May-21 07:34N 45°39' W 122°45'2 2.1
2015-May-21 06:34N 45°38' W 122°42'2 2.1
2015-May-21 05:33N 45°39' W 122°45'0 0.0
2015-May-21 04:33N 45°39' W 122°45'3 2.7
2015-May-21 03:33N 45°36' W 122°47'1 1.2
2015-May-21 02:33N 45°37' W 122°47'2 2.4
2015-May-21 01:33N 45°39' W 122°45'0 0.0
2015-May-21 00:33N 45°39' W 122°45'0 0.0
2015-May-20 23:34N 45°39' W 122°45'0 0.0
2015-May-20 22:33N 45°39' W 122°45'0 0.5
2015-May-20 21:33N 45°39' W 122°45'0 0.2
2015-May-20 20:33N 45°39' W 122°45'0 0.4
2015-May-20 19:33N 45°39' W 122°45'0 0.0
2015-May-20 18:33N 45°39' W 122°45'0 0.0
2015-May-20 17:33N 45°39' W 122°45'0 0.0
2015-May-20 16:33N 45°39' W 122°45'0 0.0
2015-May-20 15:34N 45°39' W 122°45'0 0.4
2015-May-20 14:33N 45°39' W 122°45'1 0.7
2015-May-20 13:33N 45°39' W 122°44'2 2.0
2015-May-20 12:33N 45°38' W 122°42'1 1.4
2015-May-20 11:33N 45°38' W 122°44'0 0.0
2015-May-20 10:33N 45°38' W 122°44'0 0.0
2015-May-20 09:33N 45°38' W 122°44'0 0.0
2015-May-20 08:33N 45°38' W 122°44'0 0.5
2015-May-20 07:33N 45°38' W 122°44'1 0.8
2015-May-20 06:33N 45°39' W 122°45'0 0.0
2015-May-20 05:25N 45°39' W 122°45'0 0.0
2015-May-20 04:31N 45°39' W 122°45'0 0.0
2015-May-20 03:22N 45°39' W 122°45'0 0.0
2015-May-20 02:31N 45°39' W 122°45'0 0.0
2015-May-20 01:31N 45°39' W 122°45'0 0.0
2015-May-20 00:28N 45°39' W 122°45'2 2.2
2015-May-19 23:33N 45°38' W 122°42'2 1.8
2015-May-19 22:28N 45°39' W 122°45'0 0.0
2015-May-19 21:28N 45°39' W 122°45'0 0.0
2015-May-19 20:31N 45°39' W 122°45'0 0.0
2015-May-19 19:28N 45°39' W 122°45'0 0.0
2015-May-19 18:31N 45°39' W 122°45'0 0.0
2015-May-19 17:22N 45°39' W 122°45'0 0.0
2015-May-19 16:25N 45°39' W 122°45'0 0.0
2015-May-19 15:31N 45°39' W 122°45'0 0.0
2015-May-19 14:28N 45°39' W 122°45'0 0.0
2015-May-19 13:28N 45°39' W 122°45'0 0.0
2015-May-19 12:31N 45°39' W 122°45'0 0.0
2015-May-19 11:31N 45°39' W 122°45'0 0.0
2015-May-19 10:28N 45°39' W 122°45'0 0.0
2015-May-19 09:28N 45°39' W 122°45'0 0.0
2015-May-19 08:31N 45°39' W 122°45'0 0.0
2015-May-19 07:28N 45°39' W 122°45'0 0.0
2015-May-19 06:28N 45°39' W 122°45'0 0.0
2015-May-19 05:28N 45°39' W 122°45'0 0.0
2015-May-19 04:25N 45°39' W 122°45'0 0.0
2015-May-19 03:28N 45°39' W 122°45'0 0.0
2015-May-19 02:31N 45°39' W 122°45'0 0.0
2015-May-19 01:31N 45°39' W 122°45'0 0.0
2015-May-19 00:28N 45°39' W 122°45'0 0.0
2015-May-18 23:28N 45°39' W 122°45'0 0.0
2015-May-18 22:28N 45°39' W 122°45'0 0.0
2015-May-18 21:22N 45°39' W 122°45'0 0.0
2015-May-18 20:33N 45°39' W 122°45'0 0.0
2015-May-18 19:33N 45°39' W 122°45'0 0.0
2015-May-18 18:33N 45°39' W 122°45'0 0.0
2015-May-18 17:33N 45°39' W 122°45'0 0.0
2015-May-18 16:33N 45°39' W 122°45'0 0.0
2015-May-18 15:34N 45°39' W 122°45'0 0.0
2015-May-18 14:33N 45°39' W 122°45'3 2.5
2015-May-18 13:33N 45°38' W 122°42'1 0.6
2015-May-18 12:33N 45°38' W 122°42'2 2.0
2015-May-18 11:33N 45°39' W 122°45'0 0.0
2015-May-18 10:33N 45°39' W 122°45'0 0.0
2015-May-18 09:33N 45°39' W 122°45'0 0.0
2015-May-18 08:33N 45°39' W 122°45'0 0.0
2015-May-18 07:33N 45°39' W 122°45'0 0.0
2015-May-18 06:33N 45°39' W 122°45'0 0.0
2015-May-18 05:33N 45°39' W 122°45'0 0.0
2015-May-18 04:33N 45°39' W 122°45'0 0.0
2015-May-18 03:33N 45°39' W 122°45'0 0.0
2015-May-18 02:33N 45°39' W 122°45'0 0.0
2015-May-18 01:33N 45°39' W 122°45'0 0.0
2015-May-18 00:33N 45°39' W 122°45'0 0.0
2015-May-17 23:33N 45°39' W 122°45'0 0.0
2015-May-17 22:33N 45°39' W 122°45'0 0.0
2015-May-17 21:33N 45°39' W 122°45'0 0.0
2015-May-17 20:33N 45°39' W 122°45'0 0.0
2015-May-17 19:33N 45°39' W 122°45'0 0.0
2015-May-17 18:33N 45°39' W 122°45'0 0.0
2015-May-17 17:33N 45°39' W 122°45'0 0.0
2015-May-17 16:33N 45°39' W 122°45'0 0.0
2015-May-17 15:33N 45°39' W 122°45'0 0.0
2015-May-17 14:33N 45°39' W 122°45'0 0.0
2015-May-17 13:33N 45°39' W 122°45'  

Dump ship's entire track history